Crawford, Texas
Current Conditions -  °F | °C
As of 2:35 AM on Saturday 29 Nov 2014 (Local Time) from KPWG Reporting Station
Clear Clear  
Wind Chill: 55°   Ceiling: Unl
Heat Index: 55°   Visibility: 10mi
Dew Point: 45°   Wind: 12mph
Humidity: 67%   Direction: 200°SSW
Pressure: 30.02"   Gusts: 17mph
Location:  31.53°N, 97.44°W
Report Text: KPWG 290835Z AUTO 20010G15KT 10SM CLR 13/07 A3002 RMK AO1
Loading
Personal Weather Stations






























Interactive Weather Map New forecast layout! Learn more

10-Day Weather Forecast

Advertisements
Track Severe Weather on mobile